Shannon Dann — WCD6367 — position and weather

sailwx.info

Track history (hours):
 
Tides and Currents Weather Stations Pressure Air Temp Water Temp Dewpoint Dewpoint Depression Visibility Wind Speed Wind Dir Waves Ship Positions

Shannon Dann

Owner: Dann Ocean Towing, TAMPA, FL. More information available from US FCC via Universal Licensing System and Coast Guard Vessel Documentation Center.

Last reported at 2019-Jan-12 19:09 UTC. Time now 2019-Jan-19 08:00 UTC.
Position N 18°15' W 064°52'.

Length 30 m; draft 4 m.

Type: Tow > 200 m length. MMSI: 338533000.

Date/timePositionNaut miles runAvg speedWind from/ knotsBaromVisibWave heightAir tempDewpointWater temp
2019-Jan-12 19:09N 18°15' W 064°52'90 4.9
2019-Jan-12 00:42N 17°45' W 063°23'3 5.3
2019-Jan-12 00:11N 17°44' W 063°21'1 5.4
2019-Jan-12 00:00N 17°43' W 063°20'3 5.5
2019-Jan-11 23:28N 17°42' W 063°17'3 5.4
2019-Jan-11 22:59N 17°41' W 063°14'3 5.3
2019-Jan-11 22:29N 17°39' W 063°12'3 5.1
2019-Jan-11 21:52N 17°37' W 063°10'21 5.1
2019-Jan-11 17:45N 17°21' W 062°56'22 5.2
2019-Jan-11 13:27N 17°04' W 062°41'178 5.0
2019-Jan-10 02:00N 14°27' W 061°14'12 5.3
2019-Jan-09 23:44N 14°16' W 061°08'1 0.0
2019-Jan-08 12:39N 14°17' W 061°07'2 5.5
2019-Jan-08 12:21N 14°18' W 061°08'2 5.6
2019-Jan-08 11:58N 14°20' W 061°09'3 5.8
2019-Jan-08 11:30N 14°23' W 061°10'4 6.2
2019-Jan-08 10:56N 14°26' W 061°12'197 5.7
2019-Jan-07 00:29N 17°17' W 062°55'26 5.3
2019-Jan-06 19:32N 17°38' W 063°11'1 5.0
2019-Jan-06 19:16N 17°39' W 063°12'2 5.2
2019-Jan-06 18:55N 17°40' W 063°13'3 5.7
2019-Jan-06 18:24N 17°42' W 063°16'3 5.9
2019-Jan-06 17:52N 17°43' W 063°19'3 5.5
2019-Jan-06 17:24N 17°45' W 063°21'2 5.4
2019-Jan-06 16:58N 17°46' W 063°23'3 5.4
2019-Jan-06 16:30N 17°47' W 063°26'88 5.2
2019-Jan-05 23:40N 18°16' W 064°53'1 5.7
2019-Jan-05 23:28N 18°16' W 064°54'  
Track history (hours):
 
Tides and Currents Weather Stations Pressure Air Temp Water Temp Dewpoint Dewpoint Depression Visibility Wind Speed Wind Dir Waves Ship Positions

Shannon Dann

Owner: Dann Ocean Towing, TAMPA, FL. More information available from US FCC via Universal Licensing System and Coast Guard Vessel Documentation Center.

Last reported at 2019-Jan-12 19:09 UTC. Time now 2019-Jan-19 08:00 UTC.
Position N 18°15' W 064°52'.

Length 30 m; draft 4 m.

Type: Tow > 200 m length. MMSI: 338533000.

Date/timePositionNaut miles runAvg speedWind from/ knotsBaromVisibWave heightAir tempDewpointWater temp
2019-Jan-12 19:09N 18°15' W 064°52'90 4.9
2019-Jan-12 00:42N 17°45' W 063°23'3 5.3
2019-Jan-12 00:11N 17°44' W 063°21'1 5.4
2019-Jan-12 00:00N 17°43' W 063°20'3 5.5
2019-Jan-11 23:28N 17°42' W 063°17'3 5.4
2019-Jan-11 22:59N 17°41' W 063°14'3 5.3
2019-Jan-11 22:29N 17°39' W 063°12'3 5.1
2019-Jan-11 21:52N 17°37' W 063°10'21 5.1
2019-Jan-11 17:45N 17°21' W 062°56'22 5.2
2019-Jan-11 13:27N 17°04' W 062°41'178 5.0
2019-Jan-10 02:00N 14°27' W 061°14'12 5.3
2019-Jan-09 23:44N 14°16' W 061°08'1 0.0
2019-Jan-08 12:39N 14°17' W 061°07'2 5.5
2019-Jan-08 12:21N 14°18' W 061°08'2 5.6
2019-Jan-08 11:58N 14°20' W 061°09'3 5.8
2019-Jan-08 11:30N 14°23' W 061°10'4 6.2
2019-Jan-08 10:56N 14°26' W 061°12'197 5.7
2019-Jan-07 00:29N 17°17' W 062°55'26 5.3
2019-Jan-06 19:32N 17°38' W 063°11'1 5.0
2019-Jan-06 19:16N 17°39' W 063°12'2 5.2
2019-Jan-06 18:55N 17°40' W 063°13'3 5.7
2019-Jan-06 18:24N 17°42' W 063°16'3 5.9
2019-Jan-06 17:52N 17°43' W 063°19'3 5.5
2019-Jan-06 17:24N 17°45' W 063°21'2 5.4
2019-Jan-06 16:58N 17°46' W 063°23'3 5.4
2019-Jan-06 16:30N 17°47' W 063°26'88 5.2
2019-Jan-05 23:40N 18°16' W 064°53'1 5.7
2019-Jan-05 23:28N 18°16' W 064°54'  

Dump ship's entire track history